Time;durP1;ratioP1;P1;durP2;ratioP2;P2;SDS_P1;SDS_P2;PMS_P1;PMS_P2;Temp;Humidity;BMP_temperature;BMP_pressure;BME280_temperature;BME280_humidity;BME280_pressure;Samples;Min_cycle;Max_cycle;Signal;HPM_P1;HPM_P2
2022/07/01 00:01:41;;;;;;;6.03;4.90;;;;;;;;;;5051425;28;20243;-53
2022/07/01 00:04:07;;;;;;;7.30;5.07;;;;;;;;;;5051588;28;20230;-51
2022/07/01 00:06:34;;;;;;;6.33;5.73;;;;;;;;;;5051723;28;20242;-53
2022/07/01 00:09:00;;;;;;;6.13;5.03;;;;;;;;;;5051439;28;20559;-49
2022/07/01 00:11:26;;;;;;;6.67;5.10;;;;;;;;;;5051521;28;20693;-50
2022/07/01 00:13:52;;;;;;;5.83;5.23;;;;;;;;;;5051578;28;20207;-51
2022/07/01 00:16:18;;;;;;;5.23;4.27;;;;;;;;;;5051647;28;20203;-52
2022/07/01 00:18:45;;;;;;;4.53;4.10;;;;;;;;;;5051414;28;20876;-50
2022/07/01 00:21:12;;;;;;;4.63;4.23;;;;;;;;;;5051525;28;20570;-51
2022/07/01 00:23:38;;;;;;;5.00;3.80;;;;;;;;;;5052736;28;20263;-53
2022/07/01 00:26:04;;;;;;;4.80;3.97;;;;;;;;;;5055707;28;20600;-50
2022/07/01 00:28:30;;;;;;;3.77;3.47;;;;;;;;;;5055547;28;20247;-52
2022/07/01 00:30:56;;;;;;;3.50;3.20;;;;;;;;;;5055417;28;20767;-53
2022/07/01 00:33:22;;;;;;;4.30;4.00;;;;;;;;;;5055453;28;20257;-53
2022/07/01 00:35:49;;;;;;;6.60;4.03;;;;;;;;;;5055339;28;20281;-53
2022/07/01 00:38:15;;;;;;;4.63;4.23;;;;;;;;;;5055099;28;20217;-51
2022/07/01 00:40:41;;;;;;;6.63;4.00;;;;;;;;;;5055395;28;20208;-51
2022/07/01 00:43:07;;;;;;;4.53;4.20;;;;;;;;;;5055118;28;20672;-51
2022/07/01 00:45:33;;;;;;;4.80;4.40;;;;;;;;;;5055353;28;20204;-52
2022/07/01 00:47:59;;;;;;;7.47;5.00;;;;;;;;;;5055278;28;20204;-52
2022/07/01 00:50:25;;;;;;;6.47;5.60;;;;;;;;;;5055115;28;20232;-52
2022/07/01 00:52:52;;;;;;;6.00;5.50;;;;;;;;;;5055170;28;20193;-52
2022/07/01 00:55:18;;;;;;;5.70;5.20;;;;;;;;;;5055297;28;20208;-51
2022/07/01 00:57:44;;;;;;;6.13;5.53;;;;;;;;;;5054835;28;20557;-52
2022/07/01 01:00:12;;;;;;;5.97;5.37;;;;;;;;;;5054799;28;20216;-50
2022/07/01 01:02:38;;;;;;;7.83;6.10;;;;;;;;;;5054765;28;20329;-50
2022/07/01 01:05:05;;;;;;;5.93;5.43;;;;;;;;;;5055038;28;20245;-53
2022/07/01 01:07:31;;;;;;;6.03;5.53;;;;;;;;;;5055060;28;20198;-51
2022/07/01 01:09:59;;;;;;;7.37;6.77;;;;;;;;;;5054553;28;20560;-52
2022/07/01 01:12:25;;;;;;;8.50;7.80;;;;;;;;;;5054615;28;20279;-51
2022/07/01 01:14:51;;;;;;;9.00;7.97;;;;;;;;;;5054549;28;20239;-51
2022/07/01 01:17:18;;;;;;;7.80;7.13;;;;;;;;;;5054809;28;20204;-53
2022/07/01 01:19:44;;;;;;;8.23;7.53;;;;;;;;;;5054449;28;20220;-54
2022/07/01 01:22:15;;;;;;;8.77;8.00;;;;;;;;;;5054567;28;20225;-51
2022/07/01 01:24:41;;;;;;;8.27;7.57;;;;;;;;;;5054489;28;20283;-49
2022/07/01 01:27:07;;;;;;;7.53;6.83;;;;;;;;;;5054217;28;20654;-51
2022/07/01 01:29:35;;;;;;;7.90;7.10;;;;;;;;;;5054599;28;20236;-49
2022/07/01 01:32:01;;;;;;;6.30;5.80;;;;;;;;;;5054324;28;20203;-51
2022/07/01 01:34:27;;;;;;;6.83;6.13;;;;;;;;;;5053935;28;20201;-51
2022/07/01 01:36:53;;;;;;;7.13;6.37;;;;;;;;;;5054099;28;20287;-52
2022/07/01 01:39:21;;;;;;;7.00;6.40;;;;;;;;;;5054265;28;20587;-51
2022/07/01 01:41:47;;;;;;;6.47;5.87;;;;;;;;;;5054139;28;20212;-51
2022/07/01 01:44:13;;;;;;;6.67;6.07;;;;;;;;;;5054447;28;20212;-53
2022/07/01 01:46:39;;;;;;;6.83;6.23;;;;;;;;;;5053881;28;20717;-54
2022/07/01 01:49:06;;;;;;;6.00;5.30;;;;;;;;;;5054334;28;20189;-53
2022/07/01 01:51:32;;;;;;;5.90;5.10;;;;;;;;;;5054187;28;20197;-51
2022/07/01 01:53:58;;;;;;;5.70;5.03;;;;;;;;;;5054040;28;20608;-50
2022/07/01 01:56:26;;;;;;;4.80;4.40;;;;;;;;;;5053806;28;20613;-51
2022/07/01 01:58:52;;;;;;;4.90;4.50;;;;;;;;;;5053687;28;20224;-52
2022/07/01 02:01:18;;;;;;;4.87;4.43;;;;;;;;;;5053579;28;20236;-52
2022/07/01 02:03:45;;;;;;;6.20;4.27;;;;;;;;;;5052709;28;20246;-52
2022/07/01 02:06:11;;;;;;;5.67;4.57;;;;;;;;;;5052358;28;20579;-50
2022/07/01 02:08:37;;;;;;;4.50;4.10;;;;;;;;;;5052569;28;20307;-47
2022/07/01 02:11:04;;;;;;;4.93;4.40;;;;;;;;;;5052660;28;20205;-52
2022/07/01 02:13:31;;;;;;;5.13;4.10;;;;;;;;;;5052526;28;20642;-51
2022/07/01 02:15:57;;;;;;;4.27;3.87;;;;;;;;;;5052421;28;20275;-50
2022/07/01 02:18:23;;;;;;;4.83;3.53;;;;;;;;;;5052285;28;20324;-49
2022/07/01 02:20:49;;;;;;;3.40;3.10;;;;;;;;;;5052472;28;20254;-50
2022/07/01 02:23:15;;;;;;;4.00;3.70;;;;;;;;;;5052559;28;20204;-52
2022/07/01 02:25:42;;;;;;;3.60;3.30;;;;;;;;;;5052354;28;20597;-52
2022/07/01 02:28:08;;;;;;;4.10;3.63;;;;;;;;;;5052226;28;20231;-52
2022/07/01 02:30:36;;;;;;;3.50;3.23;;;;;;;;;;5052664;28;20203;-52
2022/07/01 02:33:02;;;;;;;3.70;3.07;;;;;;;;;;5052258;28;20314;-52
2022/07/01 02:35:28;;;;;;;3.97;3.23;;;;;;;;;;5052270;28;20265;-52
2022/07/01 02:37:54;;;;;;;3.27;2.97;;;;;;;;;;5051989;28;20810;-50
2022/07/01 02:40:20;;;;;;;3.60;3.30;;;;;;;;;;5052202;28;20199;-50
2022/07/01 02:42:46;;;;;;;3.53;3.23;;;;;;;;;;5052237;28;20230;-49
2022/07/01 02:45:12;;;;;;;5.00;3.70;;;;;;;;;;5052325;28;20184;-49
2022/07/01 02:47:40;;;;;;;5.63;3.73;;;;;;;;;;5051236;28;20327;-50
2022/07/01 02:50:07;;;;;;;4.23;3.83;;;;;;;;;;5052041;28;20204;-51
2022/07/01 02:52:36;;;;;;;6.50;3.70;;;;;;;;;;5052210;28;20202;-51
2022/07/01 02:55:03;;;;;;;6.43;4.17;;;;;;;;;;5051979;28;20200;-50
2022/07/01 02:57:29;;;;;;;4.53;3.17;;;;;;;;;;5051935;28;20654;-50
2022/07/01 02:59:55;;;;;;;6.27;3.53;;;;;;;;;;5051579;28;20693;-50
2022/07/01 03:02:21;;;;;;;4.27;2.90;;;;;;;;;;5017221;28;1006838;-51
2022/07/01 03:04:48;;;;;;;4.57;3.23;;;;;;;;;;5052764;28;20196;-51
2022/07/01 03:07:15;;;;;;;3.37;3.00;;;;;;;;;;5052466;28;20235;-51
2022/07/01 03:09:41;;;;;;;5.13;3.30;;;;;;;;;;5052562;28;20238;-51
2022/07/01 03:14:52;;;;;;;4.90;3.47;;;;;;;;;;5052314;28;20665;-52
2022/07/01 03:17:18;;;;;;;5.33;2.83;;;;;;;;;;5052576;28;20243;-51
2022/07/01 03:19:44;;;;;;;6.37;2.70;;;;;;;;;;5052319;28;20223;-51
2022/07/01 03:22:12;;;;;;;3.10;2.20;;;;;;;;;;5052084;28;20208;-52
2022/07/01 03:24:38;;;;;;;2.83;1.90;;;;;;;;;;5052285;28;20200;-52
2022/07/01 03:27:04;;;;;;;4.27;2.30;;;;;;;;;;5052145;28;20215;-52
2022/07/01 03:29:30;;;;;;;2.73;1.80;;;;;;;;;;5052202;28;20188;-51
2022/07/01 03:31:56;;;;;;;3.77;1.73;;;;;;;;;;5052075;28;20207;-51
2022/07/01 03:34:22;;;;;;;3.87;1.70;;;;;;;;;;5052185;28;20254;-51
2022/07/01 03:36:48;;;;;;;3.17;2.00;;;;;;;;;;5052210;28;20204;-51
2022/07/01 03:39:15;;;;;;;2.57;1.90;;;;;;;;;;5051857;28;20236;-50
2022/07/01 03:41:41;;;;;;;1.90;1.60;;;;;;;;;;5051844;28;20204;-52
2022/07/01 03:44:07;;;;;;;2.63;1.50;;;;;;;;;;5051710;28;20543;-50
2022/07/01 03:46:35;;;;;;;3.80;1.63;;;;;;;;;;5052042;28;20290;-48
2022/07/01 03:49:01;;;;;;;3.53;1.47;;;;;;;;;;5051795;28;20192;-49
2022/07/01 03:51:27;;;;;;;4.50;1.67;;;;;;;;;;5051773;28;20207;-51
2022/07/01 03:56:39;;;;;;;2.47;1.70;;;;;;;;;;5051796;28;20194;-51
2022/07/01 03:59:04;;;;;;;1.80;1.43;;;;;;;;;;5051451;28;20232;-51
2022/07/01 04:01:31;;;;;;;2.07;1.60;;;;;;;;;;5051743;28;20236;-52
2022/07/01 04:03:57;;;;;;;3.30;1.63;;;;;;;;;;5051677;28;20246;-51
2022/07/01 04:06:23;;;;;;;3.83;1.73;;;;;;;;;;5051743;28;20200;-51
2022/07/01 04:08:49;;;;;;;3.17;1.80;;;;;;;;;;5051716;28;20202;-49
2022/07/01 04:11:15;;;;;;;3.33;1.70;;;;;;;;;;5051417;28;20202;-49
2022/07/01 04:13:49;;;;;;;2.07;1.60;;;;;;;;;;5051531;28;20230;-49
2022/07/01 04:16:15;;;;;;;2.53;2.27;;;;;;;;;;5051623;28;20753;-48
2022/07/01 04:18:41;;;;;;;3.33;2.17;;;;;;;;;;5051469;28;20298;-49
2022/07/01 04:23:52;;;;;;;4.37;3.00;;;;;;;;;;5051486;28;20238;-50
2022/07/01 04:26:18;;;;;;;3.20;2.90;;;;;;;;;;5051453;28;20201;-50
2022/07/01 04:28:46;;;;;;;6.03;3.10;;;;;;;;;;5051522;28;20283;-50
2022/07/01 04:31:11;;;;;;;4.27;3.67;;;;;;;;;;5051344;28;20208;-49
2022/07/01 04:33:37;;;;;;;3.50;3.27;;;;;;;;;;5051403;28;20200;-50
2022/07/01 04:36:03;;;;;;;5.27;3.30;;;;;;;;;;5051443;28;20204;-50
2022/07/01 04:38:29;;;;;;;8.17;4.13;;;;;;;;;;5051387;28;20220;-51
2022/07/01 04:43:40;;;;;;;4.17;3.80;;;;;;;;;;5051378;28;20195;-51
2022/07/01 04:46:07;;;;;;;4.57;3.77;;;;;;;;;;5051234;28;20200;-51
2022/07/01 04:48:33;;;;;;;4.30;3.93;;;;;;;;;;5051319;28;20219;-52
2022/07/01 04:50:59;;;;;;;4.10;3.80;;;;;;;;;;5051093;28;20632;-52
2022/07/01 04:53:25;;;;;;;3.93;3.63;;;;;;;;;;5051072;28;20280;-51
2022/07/01 04:55:51;;;;;;;4.33;4.00;;;;;;;;;;5051082;28;20607;-52
2022/07/01 04:58:17;;;;;;;4.53;3.77;;;;;;;;;;5051334;28;20302;-51
2022/07/01 05:00:43;;;;;;;4.40;4.00;;;;;;;;;;5050861;28;20575;-52
2022/07/01 05:03:10;;;;;;;3.90;3.60;;;;;;;;;;5050994;28;20204;-51
2022/07/01 05:05:36;;;;;;;4.30;3.90;;;;;;;;;;5051120;28;20564;-51
2022/07/01 05:08:02;;;;;;;3.97;3.57;;;;;;;;;;5051084;28;20204;-52
2022/07/01 05:10:29;;;;;;;5.40;3.50;;;;;;;;;;5053492;28;20188;-52
2022/07/01 05:12:55;;;;;;;6.10;3.03;;;;;;;;;;5054849;28;20417;-51
2022/07/01 05:15:21;;;;;;;4.27;3.87;;;;;;;;;;5054040;28;20716;-52
2022/07/01 05:23:18;;;;;;;5.50;3.73;;;;;;;;;;5054473;28;20673;-52
2022/07/01 05:25:44;;;;;;;3.80;3.50;;;;;;;;;;5054441;28;20218;-51
2022/07/01 05:28:10;;;;;;;4.60;4.20;;;;;;;;;;5054368;28;20745;-51
2022/07/01 05:30:36;;;;;;;4.83;3.90;;;;;;;;;;5054378;28;20206;-51
2022/07/01 05:33:02;;;;;;;6.10;4.97;;;;;;;;;;5054285;28;20250;-50
2022/07/01 05:35:28;;;;;;;6.17;4.63;;;;;;;;;;5054410;28;20560;-51
2022/07/01 05:37:55;;;;;;;4.67;4.20;;;;;;;;;;5054230;28;20939;-51
2022/07/01 05:40:21;;;;;;;5.40;5.00;;;;;;;;;;5053709;28;20607;-51
2022/07/01 05:42:47;;;;;;;6.87;4.73;;;;;;;;;;5054048;28;20662;-51
2022/07/01 05:45:13;;;;;;;6.87;5.27;;;;;;;;;;5053832;28;20673;-51
2022/07/01 05:47:39;;;;;;;5.43;4.87;;;;;;;;;;5054055;28;20211;-51
2022/07/01 05:50:06;;;;;;;6.43;5.43;;;;;;;;;;5053712;28;20696;-51
2022/07/01 05:52:32;;;;;;;7.00;6.40;;;;;;;;;;5054151;28;20209;-51
2022/07/01 05:55:00;;;;;;;7.77;6.07;;;;;;;;;;5054364;28;20550;-50
2022/07/01 05:57:26;;;;;;;6.97;6.27;;;;;;;;;;5053533;28;20200;-51
2022/07/01 05:59:52;;;;;;;6.70;6.10;;;;;;;;;;5053711;28;20278;-51
2022/07/01 06:02:18;;;;;;;7.70;6.90;;;;;;;;;;5053595;28;20240;-52
2022/07/01 06:04:44;;;;;;;7.40;6.70;;;;;;;;;;5053739;28;20200;-51
2022/07/01 06:07:12;;;;;;;8.27;7.50;;;;;;;;;;5053570;28;20318;-50
2022/07/01 06:09:39;;;;;;;7.60;6.90;;;;;;;;;;5053666;28;20192;-50
2022/07/01 06:12:07;;;;;;;7.93;7.23;;;;;;;;;;5053463;28;20238;-51
2022/07/01 06:14:33;;;;;;;7.63;6.93;;;;;;;;;;5053645;28;20210;-50
2022/07/01 06:16:59;;;;;;;9.07;8.17;;;;;;;;;;5053351;28;20196;-51
2022/07/01 06:19:24;;;;;;;8.23;7.43;;;;;;;;;;5053600;28;20516;-52
2022/07/01 06:21:50;;;;;;;7.40;6.70;;;;;;;;;;5051881;28;20287;-52
2022/07/01 06:24:16;;;;;;;9.37;8.53;;;;;;;;;;5053289;28;20192;-52
2022/07/01 06:26:42;;;;;;;11.43;8.33;;;;;;;;;;5053090;28;20219;-51
2022/07/01 06:29:10;;;;;;;9.43;8.30;;;;;;;;;;5053187;28;20199;-51
2022/07/01 06:31:37;;;;;;;10.10;8.30;;;;;;;;;;5052712;28;20204;-51
2022/07/01 06:34:03;;;;;;;8.40;7.70;;;;;;;;;;5053233;28;20200;-52
2022/07/01 06:36:28;;;;;;;11.57;7.83;;;;;;;;;;5053005;28;20233;-51
2022/07/01 06:38:54;;;;;;;8.23;7.43;;;;;;;;;;5053318;28;20755;-50
2022/07/01 06:41:26;;;;;;;8.83;7.93;;;;;;;;;;5052573;28;20200;-51
2022/07/01 06:43:53;;;;;;;9.23;8.43;;;;;;;;;;5052975;28;20275;-50
2022/07/01 06:46:20;;;;;;;9.17;8.23;;;;;;;;;;5052874;28;20205;-51
2022/07/01 06:48:46;;;;;;;9.97;9.00;;;;;;;;;;5053052;28;20200;-51
2022/07/01 06:51:12;;;;;;;10.53;9.43;;;;;;;;;;5052857;28;20190;-51
2022/07/01 06:53:38;;;;;;;9.93;9.03;;;;;;;;;;5052889;28;20654;-51
2022/07/01 06:56:05;;;;;;;9.60;8.77;;;;;;;;;;5052905;28;20250;-51
2022/07/01 06:58:31;;;;;;;10.37;9.37;;;;;;;;;;5052587;28;20236;-51
2022/07/01 07:00:57;;;;;;;9.53;8.73;;;;;;;;;;5052620;28;20240;-51
2022/07/01 07:03:24;;;;;;;10.50;9.50;;;;;;;;;;5052509;28;20607;-51
2022/07/01 07:05:50;;;;;;;10.27;9.30;;;;;;;;;;5050896;28;20234;-50
2022/07/01 07:08:16;;;;;;;10.80;9.70;;;;;;;;;;5052450;28;20184;-52
2022/07/01 07:10:42;;;;;;;11.37;9.37;;;;;;;;;;5052302;28;20310;-51
2022/07/01 07:13:08;;;;;;;9.77;8.87;;;;;;;;;;5052222;28;20197;-51
2022/07/01 07:15:34;;;;;;;10.80;9.67;;;;;;;;;;5052264;28;20212;-51
2022/07/01 07:18:00;;;;;;;10.40;9.50;;;;;;;;;;5052051;28;20238;-51
2022/07/01 07:20:27;;;;;;;10.17;9.20;;;;;;;;;;5052087;28;20281;-51
2022/07/01 07:22:54;;;;;;;9.73;8.93;;;;;;;;;;5052378;28;20211;-51
2022/07/01 07:25:20;;;;;;;10.97;9.50;;;;;;;;;;5052005;28;20230;-51
2022/07/01 07:27:46;;;;;;;8.93;8.13;;;;;;;;;;5052318;28;20561;-50
2022/07/01 07:30:12;;;;;;;11.30;10.20;;;;;;;;;;5052109;28;20199;-50
2022/07/01 07:32:39;;;;;;;11.33;10.30;;;;;;;;;;5051610;28;20650;-50
2022/07/01 07:35:06;;;;;;;11.40;10.40;;;;;;;;;;5052069;28;20200;-49
2022/07/01 07:37:33;;;;;;;10.97;9.97;;;;;;;;;;5051926;28;20674;-51
2022/07/01 07:40:00;;;;;;;12.40;11.23;;;;;;;;;;5051786;28;20223;-50
2022/07/01 07:42:26;;;;;;;13.47;12.07;;;;;;;;;;5051748;28;20224;-51
2022/07/01 07:44:52;;;;;;;12.57;11.47;;;;;;;;;;5051713;28;20207;-51
2022/07/01 07:47:18;;;;;;;12.97;11.70;;;;;;;;;;5051941;28;20700;-51
2022/07/01 07:49:44;;;;;;;13.37;12.13;;;;;;;;;;5051780;28;20196;-51
2022/07/01 07:52:11;;;;;;;12.77;11.67;;;;;;;;;;5051615;28;20577;-51
2022/07/01 07:54:38;;;;;;;13.20;12.00;;;;;;;;;;5051628;28;20203;-50
2022/07/01 07:57:05;;;;;;;13.83;12.47;;;;;;;;;;5051801;28;20212;-50
2022/07/01 07:59:31;;;;;;;13.00;11.87;;;;;;;;;;5051617;28;20702;-49
2022/07/01 08:01:57;;;;;;;15.27;13.87;;;;;;;;;;5051528;28;20250;-50
2022/07/01 08:04:23;;;;;;;14.30;13.10;;;;;;;;;;5051460;28;20226;-50
2022/07/01 08:06:49;;;;;;;13.80;12.60;;;;;;;;;;5051886;28;20548;-51
2022/07/01 08:09:15;;;;;;;12.53;11.43;;;;;;;;;;5051428;28;20184;-50
2022/07/01 08:11:42;;;;;;;14.63;13.37;;;;;;;;;;5051373;28;20203;-51
2022/07/01 08:14:08;;;;;;;14.10;12.80;;;;;;;;;;5051646;28;20204;-51
2022/07/01 08:16:35;;;;;;;14.57;13.27;;;;;;;;;;5051471;28;20204;-51
2022/07/01 08:19:02;;;;;;;13.87;12.50;;;;;;;;;;5051341;28;20701;-51
2022/07/01 08:21:28;;;;;;;13.23;11.93;;;;;;;;;;5051405;28;20198;-50
2022/07/01 08:23:54;;;;;;;15.10;13.70;;;;;;;;;;5051446;28;20200;-51
2022/07/01 08:26:20;;;;;;;16.17;14.77;;;;;;;;;;5051282;28;20196;-51
2022/07/01 08:28:47;;;;;;;15.20;13.80;;;;;;;;;;5051528;28;20199;-51
2022/07/01 08:31:14;;;;;;;13.20;12.00;;;;;;;;;;5051020;28;20566;-51
2022/07/01 08:33:40;;;;;;;14.63;13.30;;;;;;;;;;5051214;28;20323;-51
2022/07/01 08:36:07;;;;;;;13.77;12.53;;;;;;;;;;5051515;28;20199;-52
2022/07/01 08:38:33;;;;;;;14.40;13.00;;;;;;;;;;5051189;28;20201;-52
2022/07/01 08:41:00;;;;;;;14.63;13.43;;;;;;;;;;5051352;28;20188;-52
2022/07/01 08:43:27;;;;;;;14.73;13.33;;;;;;;;;;5051410;28;20227;-52
2022/07/01 08:45:54;;;;;;;14.37;12.97;;;;;;;;;;5054679;28;20294;-52
2022/07/01 08:48:20;;;;;;;15.57;14.07;;;;;;;;;;5055046;28;20215;-52
2022/07/01 08:50:46;;;;;;;15.23;13.67;;;;;;;;;;5055417;28;20250;-51
2022/07/01 08:53:12;;;;;;;15.33;14.03;;;;;;;;;;5055324;28;20212;-52
2022/07/01 08:58:25;;;;;;;16.80;15.23;;;;;;;;;;5054853;28;20190;-52
2022/07/01 09:00:51;;;;;;;16.97;15.30;;;;;;;;;;5054705;28;20219;-53
2022/07/01 09:03:21;;;;;;;15.70;14.20;;;;;;;;;;5054715;28;20223;-52
2022/07/01 09:05:48;;;;;;;17.33;15.73;;;;;;;;;;5054895;28;20278;-52
2022/07/01 09:08:14;;;;;;;18.13;16.33;;;;;;;;;;5054716;28;20335;-52
2022/07/01 09:10:40;;;;;;;14.90;13.57;;;;;;;;;;5054443;28;20237;-52
2022/07/01 09:13:07;;;;;;;15.97;14.33;;;;;;;;;;5054494;28;20713;-52
2022/07/01 09:15:33;;;;;;;15.13;13.83;;;;;;;;;;5054587;28;20287;-51
2022/07/01 09:18:03;;;;;;;16.20;14.70;;;;;;;;;;5054579;28;20204;-52
2022/07/01 09:20:31;;;;;;;16.67;15.00;;;;;;;;;;5054333;28;20220;-52
2022/07/01 09:22:58;;;;;;;17.03;15.47;;;;;;;;;;5054558;28;20211;-52
2022/07/01 09:25:28;;;;;;;18.17;16.43;;;;;;;;;;5054352;28;20208;-52
2022/07/01 09:28:03;;;;;;;16.87;15.27;;;;;;;;;;5054470;28;20203;-52
2022/07/01 09:30:29;;;;;;;17.93;16.23;;;;;;;;;;5054457;28;20196;-52
2022/07/01 09:33:05;;;;;;;18.90;17.07;;;;;;;;;;5054344;28;20713;-51
2022/07/01 09:35:32;;;;;;;19.60;17.80;;;;;;;;;;5054137;28;20230;-52
2022/07/01 09:37:58;;;;;;;18.87;17.03;;;;;;;;;;5054232;28;20204;-52
2022/07/01 09:40:24;;;;;;;18.60;16.80;;;;;;;;;;5054039;28;20274;-50
2022/07/01 09:42:50;;;;;;;19.83;18.03;;;;;;;;;;5054112;28;20717;-49
2022/07/01 09:45:16;;;;;;;19.83;17.93;;;;;;;;;;5054278;28;20286;-53
2022/07/01 09:47:43;;;;;;;18.93;17.10;;;;;;;;;;5053471;28;20200;-52
2022/07/01 09:50:09;;;;;;;18.93;17.03;;;;;;;;;;5053635;28;20196;-50
2022/07/01 09:52:38;;;;;;;17.07;15.47;;;;;;;;;;5053730;28;20218;-49
2022/07/01 09:55:05;;;;;;;18.20;16.57;;;;;;;;;;5053739;28;20201;-52
2022/07/01 09:57:31;;;;;;;17.57;15.77;;;;;;;;;;5054104;28;20200;-50
2022/07/01 09:59:58;;;;;;;18.80;16.97;;;;;;;;;;5053724;28;20227;-51
2022/07/01 10:02:28;;;;;;;17.73;16.03;;;;;;;;;;5053700;28;20348;-50
2022/07/01 10:04:56;;;;;;;17.10;15.53;;;;;;;;;;5053870;28;20646;-51
2022/07/01 10:07:29;;;;;;;17.27;15.50;;;;;;;;;;5053547;28;20197;-51
2022/07/01 10:10:03;;;;;;;15.87;14.27;;;;;;;;;;5053682;28;20197;-52
2022/07/01 10:12:31;;;;;;;16.87;15.17;;;;;;;;;;5053581;28;20208;-56
2022/07/01 10:14:59;;;;;;;17.00;15.20;;;;;;;;;;5053846;28;20197;-51
2022/07/01 10:17:29;;;;;;;17.47;15.33;;;;;;;;;;5053522;28;20275;-51
2022/07/01 10:19:55;;;;;;;14.90;13.50;;;;;;;;;;5053343;28;20247;-51
2022/07/01 10:22:26;;;;;;;15.60;14.00;;;;;;;;;;5053432;28;20287;-51
2022/07/01 10:24:52;;;;;;;15.83;14.23;;;;;;;;;;5053548;28;20597;-50
2022/07/01 10:27:22;;;;;;;16.27;14.57;;;;;;;;;;5053726;28;20372;-51
2022/07/01 10:29:48;;;;;;;15.37;13.73;;;;;;;;;;5053597;28;20209;-51
2022/07/01 10:32:29;;;;;;;15.63;14.17;;;;;;;;;;5053388;28;20233;-52
2022/07/01 10:35:04;;;;;;;14.10;12.47;;;;;;;;;;5053256;28;20198;-50
2022/07/01 10:37:30;;;;;;;14.73;12.73;;;;;;;;;;5053396;28;20255;-50
2022/07/01 10:40:00;;;;;;;13.13;11.90;;;;;;;;;;5052945;28;20222;-51
2022/07/01 10:42:31;;;;;;;13.50;12.20;;;;;;;;;;5053206;28;20783;-50
2022/07/01 10:45:01;;;;;;;12.87;11.57;;;;;;;;;;5053264;28;20628;-50
2022/07/01 10:47:27;;;;;;;13.73;11.97;;;;;;;;;;5053070;28;20203;-50
2022/07/01 10:49:57;;;;;;;12.70;11.40;;;;;;;;;;5053036;28;20192;-50
2022/07/01 10:52:23;;;;;;;13.60;11.37;;;;;;;;;;5052942;28;20543;-50
2022/07/01 10:54:53;;;;;;;11.93;10.83;;;;;;;;;;5053220;28;20218;-50
2022/07/01 10:57:26;;;;;;;11.93;10.70;;;;;;;;;;5053049;28;20199;-52
2022/07/01 10:59:54;;;;;;;13.17;11.47;;;;;;;;;;5052629;28;20861;-52
2022/07/01 11:02:21;;;;;;;12.43;10.70;;;;;;;;;;5052592;28;20728;-52
2022/07/01 11:04:47;;;;;;;10.43;9.53;;;;;;;;;;5052998;28;20196;-50
2022/07/01 11:07:13;;;;;;;11.53;10.50;;;;;;;;;;5051911;28;20196;-50
2022/07/01 11:09:39;;;;;;;11.00;9.93;;;;;;;;;;5052345;28;20642;-51
2022/07/01 11:12:06;;;;;;;13.80;10.60;;;;;;;;;;5052677;28;20207;-51
2022/07/01 11:14:34;;;;;;;9.90;9.10;;;;;;;;;;5052470;28;20539;-52
2022/07/01 11:17:01;;;;;;;11.23;10.07;;;;;;;;;;5052452;28;20200;-52
2022/07/01 11:19:27;;;;;;;10.53;9.53;;;;;;;;;;5052322;28;20224;-51
2022/07/01 11:21:54;;;;;;;9.97;9.00;;;;;;;;;;5052401;28;20287;-52
2022/07/01 11:24:20;;;;;;;9.60;8.70;;;;;;;;;;5052342;28;20567;-52
2022/07/01 11:26:47;;;;;;;9.67;7.97;;;;;;;;;;5052343;28;20681;-50
2022/07/01 11:29:13;;;;;;;7.60;7.00;;;;;;;;;;5052498;28;20541;-51
2022/07/01 11:31:39;;;;;;;8.67;6.93;;;;;;;;;;5052255;28;20199;-51
2022/07/01 11:34:07;;;;;;;7.97;7.27;;;;;;;;;;5052341;28;20231;-52
2022/07/01 11:39:22;;;;;;;7.43;6.73;;;;;;;;;;5052056;28;20227;-51
2022/07/01 11:41:48;;;;;;;7.20;6.57;;;;;;;;;;5052193;28;20252;-51
2022/07/01 11:44:14;;;;;;;7.40;6.00;;;;;;;;;;5051989;28;20219;-53
2022/07/01 11:46:40;;;;;;;7.30;6.60;;;;;;;;;;5051767;28;20619;-51
2022/07/01 11:49:13;;;;;;;5.93;5.40;;;;;;;;;;5052172;28;20291;-53
2022/07/01 11:51:39;;;;;;;6.13;5.53;;;;;;;;;;5051896;28;20232;-52
2022/07/01 11:54:05;;;;;;;6.57;5.23;;;;;;;;;;5052052;28;20556;-52
2022/07/01 11:56:32;;;;;;;5.97;5.37;;;;;;;;;;5051920;28;20304;-53
2022/07/01 11:58:58;;;;;;;6.87;5.20;;;;;;;;;;5051854;28;20231;-53
2022/07/01 12:01:26;;;;;;;5.80;5.10;;;;;;;;;;5051755;28;20290;-53
2022/07/01 12:03:52;;;;;;;5.03;4.60;;;;;;;;;;5051478;28;20200;-53
2022/07/01 12:06:20;;;;;;;5.20;4.10;;;;;;;;;;5051973;28;20208;-52
2022/07/01 12:08:46;;;;;;;5.53;4.83;;;;;;;;;;5051783;28;20207;-53
2022/07/01 12:11:12;;;;;;;4.63;4.20;;;;;;;;;;5051802;28;20202;-50
2022/07/01 12:13:38;;;;;;;6.27;4.83;;;;;;;;;;5051661;28;20223;-52
2022/07/01 12:16:08;;;;;;;6.00;4.53;;;;;;;;;;5051873;28;20218;-52
2022/07/01 12:18:34;;;;;;;6.60;5.00;;;;;;;;;;5052844;28;20246;-52
2022/07/01 12:21:01;;;;;;;5.03;4.53;;;;;;;;;;5055826;28;20195;-52
2022/07/01 12:23:28;;;;;;;6.53;4.50;;;;;;;;;;5055733;28;20227;-52
2022/07/01 12:25:57;;;;;;;5.20;3.93;;;;;;;;;;5055514;28;20261;-52
2022/07/01 12:28:30;;;;;;;7.60;4.53;;;;;;;;;;5055648;28;20196;-52
2022/07/01 12:30:59;;;;;;;5.53;4.07;;;;;;;;;;5055568;28;20289;-53
2022/07/01 12:33:25;;;;;;;8.57;4.30;;;;;;;;;;5055731;28;20283;-52
2022/07/01 12:35:52;;;;;;;5.60;3.60;;;;;;;;;;5055517;28;20287;-52
2022/07/01 12:38:18;;;;;;;3.83;3.43;;;;;;;;;;5055611;28;20195;-52
2022/07/01 12:40:45;;;;;;;4.10;3.43;;;;;;;;;;5055318;28;20231;-52
2022/07/01 12:43:22;;;;;;;5.03;4.20;;;;;;;;;;5055488;28;20631;-52
2022/07/01 12:45:48;;;;;;;5.37;3.90;;;;;;;;;;5049358;28;20621;-53
2022/07/01 12:48:14;;;;;;;4.43;3.57;;;;;;;;;;5055353;28;20188;-54
2022/07/01 12:50:40;;;;;;;5.60;3.50;;;;;;;;;;5055279;28;20199;-54
2022/07/01 12:53:07;;;;;;;3.53;3.20;;;;;;;;;;5055343;28;20294;-54
2022/07/01 12:55:34;;;;;;;5.10;3.53;;;;;;;;;;5055218;28;20295;-54
2022/07/01 12:58:02;;;;;;;3.83;3.37;;;;;;;;;;5053722;28;20681;-54
2022/07/01 13:00:29;;;;;;;4.03;3.13;;;;;;;;;;5054901;28;20232;-54
2022/07/01 13:02:56;;;;;;;4.03;3.30;;;;;;;;;;5054343;28;20242;-54
2022/07/01 13:05:22;;;;;;;4.27;2.73;;;;;;;;;;5054910;28;20204;-54
2022/07/01 13:07:48;;;;;;;3.70;2.90;;;;;;;;;;5054480;28;20203;-54
2022/07/01 13:10:15;;;;;;;4.00;2.87;;;;;;;;;;5054765;28;20219;-54
2022/07/01 13:12:41;;;;;;;4.83;3.03;;;;;;;;;;5054455;28;20237;-55
2022/07/01 13:15:09;;;;;;;3.77;3.27;;;;;;;;;;5054085;28;20204;-54
2022/07/01 13:17:35;;;;;;;5.33;3.20;;;;;;;;;;5054409;28;20662;-54
2022/07/01 13:20:01;;;;;;;4.37;2.97;;;;;;;;;;5054274;28;20290;-54
2022/07/01 13:22:27;;;;;;;8.07;3.10;;;;;;;;;;5054276;28;20240;-53
2022/07/01 13:24:53;;;;;;;4.07;3.37;;;;;;;;;;5054154;28;20192;-53
2022/07/01 13:27:19;;;;;;;3.40;3.10;;;;;;;;;;5054371;28;20654;-53
2022/07/01 13:29:45;;;;;;;4.73;3.60;;;;;;;;;;5053694;28;20208;-54
2022/07/01 13:32:12;;;;;;;3.80;3.30;;;;;;;;;;5054043;28;20717;-53
2022/07/01 13:34:38;;;;;;;5.47;3.37;;;;;;;;;;5053929;28;20580;-53
2022/07/01 13:37:04;;;;;;;5.43;4.00;;;;;;;;;;5052362;28;20200;-54
2022/07/01 13:39:30;;;;;;;4.53;3.03;;;;;;;;;;5054116;28;20580;-54
2022/07/01 13:41:56;;;;;;;2.80;2.60;;;;;;;;;;5054082;28;20204;-54
2022/07/01 13:44:22;;;;;;;6.27;2.80;;;;;;;;;;5054289;28;20662;-54
2022/07/01 13:46:48;;;;;;;4.30;2.80;;;;;;;;;;5054184;28;20207;-54
2022/07/01 13:49:16;;;;;;;3.87;2.43;;;;;;;;;;5054046;28;20662;-54
2022/07/01 13:51:42;;;;;;;3.67;2.20;;;;;;;;;;5051731;28;20207;-54
2022/07/01 13:54:08;;;;;;;3.97;2.30;;;;;;;;;;5051072;28;20232;-54
2022/07/01 13:56:34;;;;;;;3.57;2.43;;;;;;;;;;5053132;28;20196;-54
2022/07/01 13:59:00;;;;;;;6.10;2.60;;;;;;;;;;5053196;28;20733;-54
2022/07/01 14:01:26;;;;;;;4.70;2.77;;;;;;;;;;5053210;28;20240;-54
2022/07/01 14:03:52;;;;;;;3.93;2.50;;;;;;;;;;5053149;28;20685;-53
2022/07/01 14:06:20;;;;;;;6.40;2.70;;;;;;;;;;5053512;28;20212;-54
2022/07/01 14:08:46;;;;;;;3.33;2.50;;;;;;;;;;5053576;28;20636;-53
2022/07/01 14:11:12;;;;;;;3.77;2.27;;;;;;;;;;5053427;28;20658;-53
2022/07/01 14:13:40;;;;;;;4.60;2.27;;;;;;;;;;5053519;28;20248;-53
2022/07/01 14:16:06;;;;;;;7.73;2.60;;;;;;;;;;5053335;28;20200;-53
2022/07/01 14:18:32;;;;;;;2.97;2.47;;;;;;;;;;5053084;28;20205;-53
2022/07/01 14:20:59;;;;;;;3.83;2.40;;;;;;;;;;5052965;28;20311;-53
2022/07/01 14:23:26;;;;;;;3.20;2.47;;;;;;;;;;5053242;28;20209;-53
2022/07/01 14:25:52;;;;;;;4.17;2.57;;;;;;;;;;5053191;28;20283;-53
2022/07/01 14:28:18;;;;;;;2.70;2.30;;;;;;;;;;5053379;28;20616;-53
2022/07/01 14:30:44;;;;;;;11.70;10.30;;;;;;;;;;5053173;28;20197;-53
2022/07/01 14:33:10;;;;;;;3.87;3.13;;;;;;;;;;5052921;28;20211;-53
2022/07/01 14:35:36;;;;;;;3.60;3.27;;;;;;;;;;5053051;28;20594;-53
2022/07/01 14:38:03;;;;;;;9.57;6.50;;;;;;;;;;5053304;28;20207;-53
2022/07/01 14:40:30;;;;;;;3.63;3.30;;;;;;;;;;5053299;28;20224;-53
2022/07/01 14:42:56;;;;;;;12.73;10.73;;;;;;;;;;5051904;28;20217;-53
2022/07/01 14:45:22;;;;;;;20.70;18.03;;;;;;;;;;5053104;28;20200;-53
2022/07/01 14:47:49;;;;;;;103.70;92.67;;;;;;;;;;5053169;28;20200;-53
2022/07/01 14:50:15;;;;;;;9.87;7.33;;;;;;;;;;5053146;28;20254;-53
2022/07/01 14:52:41;;;;;;;9.37;6.83;;;;;;;;;;5053043;28;20250;-53
2022/07/01 14:55:07;;;;;;;5.20;3.37;;;;;;;;;;5052937;28;20218;-53